Time;durP1;ratioP1;P1;durP2;ratioP2;P2;SDS_P1;SDS_P2;PMS_P1;PMS_P2;Temp;Humidity;BMP_temperature;BMP_pressure;BME280_temperature;BME280_humidity;BME280_pressure;Samples;Min_cycle;Max_cycle;Signal;HPM_P1;HPM_P2
2022/01/27 00:06:39;;;;;;;33.97;16.10;;;;;;;-5.04;92.21;100604.56;31074859;28;20062;-74
2022/01/27 00:21:41;;;;;;;33.07;15.80;;;;;;;-5.20;91.93;100607.59;31073669;28;20085;-75
2022/01/27 00:36:43;;;;;;;29.23;15.57;;;;;;;-5.30;92.18;100614.97;31052799;28;20057;-73
2022/01/27 00:51:46;;;;;;;29.70;14.60;;;;;;;-5.46;91.53;100619.06;31117510;28;20084;-74
2022/01/27 01:06:49;;;;;;;37.70;16.77;;;;;;;-5.54;90.47;100623.19;31104385;28;20077;-74
2022/01/27 01:37:17;;;;;;;40.57;18.53;;;;;;;-5.61;89.80;100622.78;31125354;28;20057;-73
2022/01/27 01:52:19;;;;;;;32.80;13.57;;;;;;;-5.67;90.98;100626.66;31079792;28;20136;-74
2022/01/27 02:23:06;;;;;;;33.87;19.70;;;;;;;-5.74;90.46;100629.69;31074383;28;20053;-74
2022/01/27 02:38:07;;;;;;;34.87;17.07;;;;;;;-5.73;91.75;100625.19;31079218;28;20080;-73
2022/01/27 02:53:10;;;;;;;29.50;15.73;;;;;;;-5.73;90.64;100625.19;31061312;28;20562;-74
2022/01/27 03:08:12;;;;;;;28.80;16.93;;;;;;;-5.75;90.30;100635.28;31087808;28;20137;-75
2022/01/27 03:23:14;;;;;;;33.30;14.73;;;;;;;-5.86;90.60;100646.03;31103941;28;20057;-74
2022/01/27 03:38:16;;;;;;;28.37;15.33;;;;;;;-5.94;90.33;100657.34;31096668;28;20519;-74
2022/01/27 03:53:18;;;;;;;38.40;17.30;;;;;;;-6.06;90.88;100657.03;31068168;28;20396;-73
2022/01/27 04:08:21;;;;;;;32.50;16.87;;;;;;;-6.07;91.36;100673.97;31061020;28;20050;-75
2022/01/27 04:23:25;;;;;;;36.87;16.40;;;;;;;-5.93;90.23;100674.00;31082743;28;20054;-74
2022/01/27 04:53:34;;;;;;;27.60;16.17;;;;;;;-5.90;88.95;100697.19;31053507;28;20050;-74
2022/01/27 05:08:50;;;;;;;34.23;16.97;;;;;;;-5.81;88.12;100707.84;31073008;28;20046;-75
2022/01/27 05:23:52;;;;;;;39.27;19.67;;;;;;;-5.84;88.57;100735.66;31074673;28;20475;-75
2022/01/27 05:38:53;;;;;;;51.07;16.93;;;;;;;-5.77;87.89;100740.56;31074020;28;20065;-74
2022/01/27 05:53:55;;;;;;;31.50;17.13;;;;;;;-5.65;87.41;100743.50;31062785;28;20054;-74
2022/01/27 06:08:57;;;;;;;37.90;18.60;;;;;;;-5.70;87.19;100751.53;31086559;28;20492;-76
2022/01/27 06:24:00;;;;;;;34.07;18.13;;;;;;;-5.50;86.60;100761.72;31066510;28;20046;-73
2022/01/27 06:39:02;;;;;;;31.87;17.00;;;;;;;-5.29;86.43;100754.94;31089177;28;20561;-73
2022/01/27 06:54:04;;;;;;;34.03;16.17;;;;;;;-5.05;85.59;100762.66;31085286;28;20064;-75
2022/01/27 07:09:06;;;;;;;46.80;17.97;;;;;;;-4.77;83.36;100767.88;31116802;28;20527;-75
2022/01/27 07:24:08;;;;;;;57.17;20.80;;;;;;;-4.49;83.11;100762.16;31094957;28;20053;-74
2022/01/27 07:39:14;;;;;;;50.63;23.37;;;;;;;-4.10;80.74;100751.97;31097208;28;20063;-75
2022/01/27 07:54:16;;;;;;;38.50;18.47;;;;;;;-3.48;78.67;100744.72;31106340;28;20742;-73
2022/01/27 08:09:18;;;;;;;47.63;21.07;;;;;;;-2.99;76.60;100756.06;31082715;28;20050;-74
2022/01/27 08:24:20;;;;;;;38.90;19.57;;;;;;;-2.95;74.75;100767.63;31084510;28;20136;-75
2022/01/27 08:39:22;;;;;;;39.93;17.77;;;;;;;-2.79;73.26;100771.38;31064952;28;20137;-75
2022/01/27 08:54:26;;;;;;;35.47;17.43;;;;;;;-2.47;72.40;100762.94;31075592;28;20082;-73
2022/01/27 09:09:28;;;;;;;37.57;18.23;;;;;;;-2.17;70.91;100752.41;31085460;28;20068;-75
2022/01/27 09:24:37;;;;;;;32.07;16.43;;;;;;;-2.00;71.26;100762.22;31101513;28;20072;-73
2022/01/27 09:39:40;;;;;;;36.07;17.27;;;;;;;-1.79;71.42;100753.22;31108102;28;20054;-73
2022/01/27 09:54:45;;;;;;;42.10;18.73;;;;;;;-1.69;70.87;100759.31;31119610;28;20640;-74
2022/01/27 10:10:11;;;;;;;47.40;18.63;;;;;;;-2.12;73.77;100746.91;31100010;28;20114;-74
2022/01/27 10:25:20;;;;;;;44.53;18.93;;;;;;;-1.75;73.10;100754.16;31094644;28;20057;-76
2022/01/27 10:40:43;;;;;;;41.83;19.57;;;;;;;-1.49;74.00;100730.06;31087161;28;20527;-75
2022/01/27 10:56:01;;;;;;;37.83;17.17;;;;;;;-1.27;72.48;100729.00;31084267;28;20058;-73
2022/01/27 11:11:05;;;;;;;36.33;15.57;;;;;;;-1.53;75.73;100737.16;31096587;28;20376;-76
2022/01/27 11:26:08;;;;;;;37.80;15.07;;;;;;;-1.34;75.24;100723.41;31087719;28;20080;-76
2022/01/27 11:41:40;;;;;;;31.10;15.57;;;;;;;-0.41;70.92;100696.28;31086063;28;20137;-74
2022/01/27 11:56:42;;;;;;;29.13;12.60;;;;;;;-1.22;73.64;100702.19;31084736;28;20145;-74
2022/01/27 12:11:49;;;;;;;29.80;11.20;;;;;;;-1.53;75.72;100707.06;31075419;28;20051;-74
2022/01/27 12:26:55;;;;;;;18.57;10.37;;;;;;;-0.87;73.12;100700.03;31071899;28;20084;-74
2022/01/27 12:42:00;;;;;;;24.40;10.97;;;;;;;-0.23;68.64;100698.78;31098994;28;20077;-74
2022/01/27 12:57:03;;;;;;;28.57;11.67;;;;;;;-0.82;70.58;100691.06;31102515;28;20143;-73
2022/01/27 13:12:17;;;;;;;36.77;15.03;;;;;;;-1.54;72.76;100708.19;31110537;28;20057;-76
2022/01/27 13:27:22;;;;;;;33.30;14.40;;;;;;;-2.06;75.83;100714.50;31118543;28;20140;-74
2022/01/27 13:42:24;;;;;;;29.40;13.07;;;;;;;-2.37;76.12;100702.56;31103165;28;20045;-74
2022/01/27 13:57:35;;;;;;;29.07;13.83;;;;;;;-2.50;77.44;100705.06;31095942;28;20045;-74
2022/01/27 14:13:00;;;;;;;39.57;15.70;;;;;;;-2.63;79.78;100703.41;31087298;28;20054;-74
2022/01/27 14:28:10;;;;;;;33.47;15.63;;;;;;;-2.77;78.48;100710.72;31090682;28;20064;-75
2022/01/27 14:43:13;;;;;;;32.90;16.33;;;;;;;-3.00;81.34;100718.09;31104203;28;20061;-74
2022/01/27 14:58:15;;;;;;;28.73;15.07;;;;;;;-3.18;80.73;100733.22;31081696;28;20061;-75
2022/01/27 15:13:18;;;;;;;35.43;18.57;;;;;;;-3.44;80.44;100756.28;31094400;28;20062;-75
2022/01/27 15:28:20;;;;;;;30.07;14.10;;;;;;;-3.90;80.41;100754.88;31078268;28;20054;-75
2022/01/27 15:43:22;;;;;;;25.37;14.23;;;;;;;-4.07;79.42;100748.72;31055140;28;20058;-76
2022/01/27 15:58:24;;;;;;;24.00;15.10;;;;;;;-4.12;79.23;100741.66;31069934;28;20503;-75
2022/01/27 16:13:26;;;;;;;22.30;11.73;;;;;;;-4.57;78.31;100749.66;31080121;28;20491;-74
2022/01/27 16:28:29;;;;;;;13.87;6.87;;;;;;;-4.62;78.58;100751.63;31089637;28;20419;-75
2022/01/27 16:43:33;;;;;;;22.10;8.97;;;;;;;-4.78;77.45;100756.50;31110012;28;20089;-75
2022/01/27 16:58:35;;;;;;;11.97;6.77;;;;;;;-5.01;78.21;100746.97;31119690;28;20093;-74
2022/01/27 17:13:37;;;;;;;27.00;12.73;;;;;;;-5.25;79.68;100752.50;31115744;28;20054;-76
2022/01/27 17:28:39;;;;;;;18.83;10.53;;;;;;;-5.48;81.14;100732.34;31115923;28;20050;-74
2022/01/27 17:43:48;;;;;;;22.47;9.93;;;;;;;-5.53;83.81;100720.75;31084772;28;20058;-75
2022/01/27 17:58:50;;;;;;;23.93;12.33;;;;;;;-5.78;87.07;100718.63;31093325;28;20050;-76
2022/01/27 18:13:53;;;;;;;27.37;13.27;;;;;;;-5.89;88.36;100723.34;31082508;28;20069;-78
2022/01/27 18:28:55;;;;;;;16.37;9.77;;;;;;;-6.09;88.21;100726.34;31078439;28;20400;-76
2022/01/27 18:43:57;;;;;;;24.70;13.00;;;;;;;-6.33;87.68;100713.28;31139178;28;20502;-76
2022/01/27 18:59:00;;;;;;;23.07;12.53;;;;;;;-6.25;89.34;100698.63;31110478;28;20054;-75
2022/01/27 19:14:02;;;;;;;23.57;12.30;;;;;;;-6.20;90.49;100691.41;31071012;28;20404;-78
2022/01/27 19:29:05;;;;;;;17.47;12.10;;;;;;;-5.92;89.87;100676.34;31096893;28;20100;-75
2022/01/27 19:44:08;;;;;;;22.63;11.87;;;;;;;-5.57;89.82;100676.66;31075381;28;20089;-76
2022/01/27 19:59:10;;;;;;;20.57;12.13;;;;;;;-5.40;87.70;100663.59;31095044;28;20124;-76
2022/01/27 20:14:12;;;;;;;25.23;11.63;;;;;;;-5.22;85.49;100657.41;31101198;28;20058;-76
2022/01/27 20:29:16;;;;;;;14.23;8.83;;;;;;;-5.46;85.94;100641.00;31046844;28;20062;-76
2022/01/27 20:44:18;;;;;;;6.67;3.50;;;;;;;-5.93;86.49;100643.06;31100604;28;20054;-77
2022/01/27 20:59:20;;;;;;;24.77;10.87;;;;;;;-6.09;87.77;100644.41;31145356;28;20116;-77
2022/01/27 21:14:31;;;;;;;3.83;3.37;;;;;;;-5.99;87.80;100624.94;31083912;28;20089;-76
2022/01/27 21:29:33;;;;;;;10.50;6.40;;;;;;;-5.83;86.91;100610.28;31148039;28;20058;-74
2022/01/27 21:44:36;;;;;;;21.70;13.23;;;;;;;-5.73;86.16;100614.59;31113704;28;20057;-74
2022/01/27 21:59:41;;;;;;;30.47;15.47;;;;;;;-5.80;85.93;100599.13;31078425;28;20148;-75
2022/01/27 22:14:45;;;;;;;13.67;10.97;;;;;;;-5.74;88.36;100607.75;31085957;28;20064;-75
2022/01/27 22:29:47;;;;;;;23.77;11.13;;;;;;;-5.70;89.32;100592.84;31094063;28;20148;-74
2022/01/27 22:44:50;;;;;;;32.63;16.13;;;;;;;-5.65;89.95;100595.38;31085398;28;20064;-76
2022/01/27 22:59:57;;;;;;;7.53;3.97;;;;;;;-5.49;90.78;100572.81;31109180;28;20163;-75
2022/01/27 23:30:16;;;;;;;24.10;10.70;;;;;;;-5.90;91.83;100547.25;31107384;28;20052;-74
2022/01/27 23:45:45;;;;;;;14.17;6.93;;;;;;;-6.05;93.32;100544.94;31111409;28;20085;-73
